sensor_id;sensor_type;location;lat;lon;timestamp;P1;durP1;ratioP1;P2;durP2;ratioP2
59998;SDS011;45859;51.378;6.736;2023-08-30T00:00:19;15.80;;;12.13;;
59998;SDS011;45859;51.378;6.736;2023-08-30T00:02:47;17.17;;;13.50;;
59998;SDS011;45859;51.378;6.736;2023-08-30T00:05:13;15.57;;;12.87;;
59998;SDS011;45859;51.378;6.736;2023-08-30T00:07:39;16.27;;;13.33;;
59998;SDS011;45859;51.378;6.736;2023-08-30T00:10:06;18.20;;;15.80;;
59998;SDS011;45859;51.378;6.736;2023-08-30T00:12:33;16.87;;;14.90;;
59998;SDS011;45859;51.378;6.736;2023-08-30T00:14:59;17.07;;;14.97;;
59998;SDS011;45859;51.378;6.736;2023-08-30T00:17:24;19.07;;;16.30;;
59998;SDS011;45859;51.378;6.736;2023-08-30T00:19:50;19.47;;;17.37;;
59998;SDS011;45859;51.378;6.736;2023-08-30T00:22:18;21.00;;;18.83;;
59998;SDS011;45859;51.378;6.736;2023-08-30T00:24:44;23.83;;;20.33;;
59998;SDS011;45859;51.378;6.736;2023-08-30T00:27:10;22.37;;;19.97;;
59998;SDS011;45859;51.378;6.736;2023-08-30T00:29:37;23.03;;;20.67;;
59998;SDS011;45859;51.378;6.736;2023-08-30T00:32:03;26.20;;;23.40;;
59998;SDS011;45859;51.378;6.736;2023-08-30T00:34:29;28.00;;;24.60;;
59998;SDS011;45859;51.378;6.736;2023-08-30T00:36:55;28.30;;;25.30;;
59998;SDS011;45859;51.378;6.736;2023-08-30T00:39:20;29.10;;;25.47;;
59998;SDS011;45859;51.378;6.736;2023-08-30T00:41:46;30.57;;;25.53;;
59998;SDS011;45859;51.378;6.736;2023-08-30T00:44:12;31.17;;;27.73;;
59998;SDS011;45859;51.378;6.736;2023-08-30T00:46:37;34.10;;;27.20;;
59998;SDS011;45859;51.378;6.736;2023-08-30T00:49:03;33.77;;;30.07;;
59998;SDS011;45859;51.378;6.736;2023-08-30T00:51:30;35.13;;;31.33;;
59998;SDS011;45859;51.378;6.736;2023-08-30T00:53:56;33.90;;;30.40;;
59998;SDS011;45859;51.378;6.736;2023-08-30T00:56:24;35.67;;;31.90;;
59998;SDS011;45859;51.378;6.736;2023-08-30T00:58:50;36.67;;;32.30;;
59998;SDS011;45859;51.378;6.736;2023-08-30T01:01:16;39.40;;;32.77;;
59998;SDS011;45859;51.378;6.736;2023-08-30T01:03:43;37.73;;;31.83;;
59998;SDS011;45859;51.378;6.736;2023-08-30T01:06:09;38.43;;;33.50;;
59998;SDS011;45859;51.378;6.736;2023-08-30T01:08:35;35.30;;;31.23;;
59998;SDS011;45859;51.378;6.736;2023-08-30T01:13:53;34.53;;;30.80;;
59998;SDS011;45859;51.378;6.736;2023-08-30T01:16:25;36.30;;;32.00;;
59998;SDS011;45859;51.378;6.736;2023-08-30T01:18:55;37.37;;;31.73;;
59998;SDS011;45859;51.378;6.736;2023-08-30T01:24:50;35.93;;;30.87;;
59998;SDS011;45859;51.378;6.736;2023-08-30T01:27:30;33.80;;;29.83;;
59998;SDS011;45859;51.378;6.736;2023-08-30T01:30:00;23.60;;;12.00;;
59998;SDS011;45859;51.378;6.736;2023-08-30T01:32:27;21.60;;;12.20;;
59998;SDS011;45859;51.378;6.736;2023-08-30T01:34:55;24.17;;;13.30;;
59998;SDS011;45859;51.378;6.736;2023-08-30T01:37:21;35.93;;;29.30;;
59998;SDS011;45859;51.378;6.736;2023-08-30T01:39:48;36.63;;;28.73;;
59998;SDS011;45859;51.378;6.736;2023-08-30T01:42:15;37.30;;;31.10;;
59998;SDS011;45859;51.378;6.736;2023-08-30T01:44:46;35.73;;;31.90;;
59998;SDS011;45859;51.378;6.736;2023-08-30T01:47:13;35.83;;;31.20;;
59998;SDS011;45859;51.378;6.736;2023-08-30T01:49:41;36.67;;;31.33;;
59998;SDS011;45859;51.378;6.736;2023-08-30T01:52:08;36.67;;;31.87;;
59998;SDS011;45859;51.378;6.736;2023-08-30T01:54:35;37.43;;;31.83;;
59998;SDS011;45859;51.378;6.736;2023-08-30T01:57:02;36.00;;;32.03;;
59998;SDS011;45859;51.378;6.736;2023-08-30T01:59:29;36.27;;;31.80;;
59998;SDS011;45859;51.378;6.736;2023-08-30T02:01:55;40.67;;;33.57;;
59998;SDS011;45859;51.378;6.736;2023-08-30T02:04:21;39.40;;;33.47;;
59998;SDS011;45859;51.378;6.736;2023-08-30T02:06:54;39.83;;;32.50;;
59998;SDS011;45859;51.378;6.736;2023-08-30T02:09:35;38.70;;;32.50;;
59998;SDS011;45859;51.378;6.736;2023-08-30T02:12:07;37.20;;;32.53;;
59998;SDS011;45859;51.378;6.736;2023-08-30T02:14:38;41.37;;;34.17;;
59998;SDS011;45859;51.378;6.736;2023-08-30T02:17:07;41.30;;;34.23;;
59998;SDS011;45859;51.378;6.736;2023-08-30T02:19:34;38.90;;;34.73;;
59998;SDS011;45859;51.378;6.736;2023-08-30T02:21:59;37.53;;;33.40;;
59998;SDS011;45859;51.378;6.736;2023-08-30T02:24:25;38.13;;;33.20;;
59998;SDS011;45859;51.378;6.736;2023-08-30T02:26:51;40.30;;;33.80;;
59998;SDS011;45859;51.378;6.736;2023-08-30T02:29:17;37.93;;;33.93;;
59998;SDS011;45859;51.378;6.736;2023-08-30T02:31:42;37.77;;;33.53;;
59998;SDS011;45859;51.378;6.736;2023-08-30T02:34:08;39.00;;;32.50;;
59998;SDS011;45859;51.378;6.736;2023-08-30T02:36:35;39.83;;;34.17;;
59998;SDS011;45859;51.378;6.736;2023-08-30T02:39:00;40.27;;;34.33;;
59998;SDS011;45859;51.378;6.736;2023-08-30T02:41:26;41.27;;;34.97;;
59998;SDS011;45859;51.378;6.736;2023-08-30T02:43:52;42.40;;;34.07;;
59998;SDS011;45859;51.378;6.736;2023-08-30T02:46:17;37.50;;;32.87;;
59998;SDS011;45859;51.378;6.736;2023-08-30T02:48:43;39.00;;;33.57;;
59998;SDS011;45859;51.378;6.736;2023-08-30T02:51:09;41.83;;;34.00;;
59998;SDS011;45859;51.378;6.736;2023-08-30T02:53:34;43.00;;;36.17;;
59998;SDS011;45859;51.378;6.736;2023-08-30T02:56:00;45.17;;;36.53;;
59998;SDS011;45859;51.378;6.736;2023-08-30T02:58:25;43.93;;;36.17;;
59998;SDS011;45859;51.378;6.736;2023-08-30T03:00:52;44.57;;;36.47;;
59998;SDS011;45859;51.378;6.736;2023-08-30T03:03:18;42.27;;;36.03;;
59998;SDS011;45859;51.378;6.736;2023-08-30T03:05:44;44.10;;;34.83;;
59998;SDS011;45859;51.378;6.736;2023-08-30T03:08:09;47.37;;;37.83;;
59998;SDS011;45859;51.378;6.736;2023-08-30T03:10:35;45.60;;;37.47;;
59998;SDS011;45859;51.378;6.736;2023-08-30T03:13:01;41.50;;;34.80;;
59998;SDS011;45859;51.378;6.736;2023-08-30T03:15:26;42.10;;;35.40;;
59998;SDS011;45859;51.378;6.736;2023-08-30T03:17:52;39.73;;;33.60;;
59998;SDS011;45859;51.378;6.736;2023-08-30T03:20:18;43.13;;;34.80;;
59998;SDS011;45859;51.378;6.736;2023-08-30T03:22:44;45.33;;;36.83;;
59998;SDS011;45859;51.378;6.736;2023-08-30T03:25:09;42.43;;;35.50;;
59998;SDS011;45859;51.378;6.736;2023-08-30T03:27:35;41.30;;;35.73;;
59998;SDS011;45859;51.378;6.736;2023-08-30T03:30:01;42.97;;;36.83;;
59998;SDS011;45859;51.378;6.736;2023-08-30T03:32:28;43.20;;;35.97;;
59998;SDS011;45859;51.378;6.736;2023-08-30T03:34:55;45.93;;;36.87;;
59998;SDS011;45859;51.378;6.736;2023-08-30T03:37:21;44.27;;;36.73;;
59998;SDS011;45859;51.378;6.736;2023-08-30T03:39:46;45.53;;;37.63;;
59998;SDS011;45859;51.378;6.736;2023-08-30T03:42:12;44.50;;;36.70;;
59998;SDS011;45859;51.378;6.736;2023-08-30T03:44:38;46.57;;;37.90;;
59998;SDS011;45859;51.378;6.736;2023-08-30T03:47:04;43.87;;;34.70;;
59998;SDS011;45859;51.378;6.736;2023-08-30T03:49:30;46.63;;;37.77;;
59998;SDS011;45859;51.378;6.736;2023-08-30T03:51:56;44.03;;;36.23;;
59998;SDS011;45859;51.378;6.736;2023-08-30T03:54:21;41.57;;;34.23;;
59998;SDS011;45859;51.378;6.736;2023-08-30T03:56:47;42.80;;;35.30;;
59998;SDS011;45859;51.378;6.736;2023-08-30T03:59:13;43.93;;;35.60;;
59998;SDS011;45859;51.378;6.736;2023-08-30T04:01:38;44.80;;;35.63;;
59998;SDS011;45859;51.378;6.736;2023-08-30T04:04:04;44.57;;;36.00;;
59998;SDS011;45859;51.378;6.736;2023-08-30T04:06:30;41.43;;;34.47;;
59998;SDS011;45859;51.378;6.736;2023-08-30T04:08:56;43.80;;;34.53;;
59998;SDS011;45859;51.378;6.736;2023-08-30T04:11:22;41.30;;;34.67;;
59998;SDS011;45859;51.378;6.736;2023-08-30T04:13:48;38.60;;;32.40;;
59998;SDS011;45859;51.378;6.736;2023-08-30T04:16:14;39.33;;;33.70;;
59998;SDS011;45859;51.378;6.736;2023-08-30T04:18:40;40.27;;;33.80;;
59998;SDS011;45859;51.378;6.736;2023-08-30T04:21:06;43.80;;;34.03;;
59998;SDS011;45859;51.378;6.736;2023-08-30T04:23:33;26.87;;;13.23;;
59998;SDS011;45859;51.378;6.736;2023-08-30T04:25:59;19.70;;;9.97;;
59998;SDS011;45859;51.378;6.736;2023-08-30T04:28:25;40.70;;;33.83;;
59998;SDS011;45859;51.378;6.736;2023-08-30T04:30:55;43.07;;;33.67;;
59998;SDS011;45859;51.378;6.736;2023-08-30T04:33:22;23.38;;;9.73;;
59998;SDS011;45859;51.378;6.736;2023-08-30T04:35:51;43.20;;;33.80;;
59998;SDS011;45859;51.378;6.736;2023-08-30T04:38:18;15.23;;;9.27;;
59998;SDS011;45859;51.378;6.736;2023-08-30T04:40:45;9.33;;;6.57;;
59998;SDS011;45859;51.378;6.736;2023-08-30T04:43:11;40.23;;;33.90;;
59998;SDS011;45859;51.378;6.736;2023-08-30T04:45:36;46.47;;;35.90;;
59998;SDS011;45859;51.378;6.736;2023-08-30T04:48:02;44.20;;;35.67;;
59998;SDS011;45859;51.378;6.736;2023-08-30T04:50:28;46.23;;;36.63;;
59998;SDS011;45859;51.378;6.736;2023-08-30T04:52:55;29.77;;;13.53;;
59998;SDS011;45859;51.378;6.736;2023-08-30T04:55:23;48.67;;;38.43;;
59998;SDS011;45859;51.378;6.736;2023-08-30T04:57:49;45.20;;;36.87;;
59998;SDS011;45859;51.378;6.736;2023-08-30T05:00:15;45.40;;;37.40;;
59998;SDS011;45859;51.378;6.736;2023-08-30T05:02:41;47.17;;;37.77;;
59998;SDS011;45859;51.378;6.736;2023-08-30T05:05:08;47.80;;;38.03;;
59998;SDS011;45859;51.378;6.736;2023-08-30T05:07:34;49.10;;;38.03;;
59998;SDS011;45859;51.378;6.736;2023-08-30T05:10:00;47.17;;;38.40;;
59998;SDS011;45859;51.378;6.736;2023-08-30T05:12:26;46.37;;;38.30;;
59998;SDS011;45859;51.378;6.736;2023-08-30T05:14:52;45.67;;;37.23;;
59998;SDS011;45859;51.378;6.736;2023-08-30T05:17:17;45.63;;;37.03;;
59998;SDS011;45859;51.378;6.736;2023-08-30T05:19:43;45.67;;;37.53;;
59998;SDS011;45859;51.378;6.736;2023-08-30T05:22:09;45.73;;;37.67;;
59998;SDS011;45859;51.378;6.736;2023-08-30T05:24:34;28.67;;;13.00;;
59998;SDS011;45859;51.378;6.736;2023-08-30T05:27:02;42.93;;;35.40;;
59998;SDS011;45859;51.378;6.736;2023-08-30T05:29:28;30.83;;;13.50;;
59998;SDS011;45859;51.378;6.736;2023-08-30T05:31:53;35.10;;;16.47;;
59998;SDS011;45859;51.378;6.736;2023-08-30T05:34:19;47.63;;;37.07;;
59998;SDS011;45859;51.378;6.736;2023-08-30T05:36:44;46.03;;;36.43;;
59998;SDS011;45859;51.378;6.736;2023-08-30T05:39:10;41.67;;;35.80;;
59998;SDS011;45859;51.378;6.736;2023-08-30T05:41:36;43.37;;;35.90;;
59998;SDS011;45859;51.378;6.736;2023-08-30T05:44:01;41.53;;;34.60;;
59998;SDS011;45859;51.378;6.736;2023-08-30T05:46:27;40.40;;;33.43;;
59998;SDS011;45859;51.378;6.736;2023-08-30T05:48:53;41.73;;;34.07;;
59998;SDS011;45859;51.378;6.736;2023-08-30T05:51:19;40.90;;;32.93;;
59998;SDS011;45859;51.378;6.736;2023-08-30T05:53:45;38.40;;;33.90;;
59998;SDS011;45859;51.378;6.736;2023-08-30T05:56:11;36.97;;;32.23;;
59998;SDS011;45859;51.378;6.736;2023-08-30T05:58:36;36.63;;;31.70;;
59998;SDS011;45859;51.378;6.736;2023-08-30T06:01:03;38.60;;;31.87;;
59998;SDS011;45859;51.378;6.736;2023-08-30T06:03:31;35.70;;;30.07;;
59998;SDS011;45859;51.378;6.736;2023-08-30T06:05:57;34.07;;;29.73;;
59998;SDS011;45859;51.378;6.736;2023-08-30T06:08:22;30.97;;;27.40;;
59998;SDS011;45859;51.378;6.736;2023-08-30T06:10:48;31.67;;;26.43;;
59998;SDS011;45859;51.378;6.736;2023-08-30T06:13:14;28.80;;;25.00;;
59998;SDS011;45859;51.378;6.736;2023-08-30T06:15:39;25.87;;;22.47;;
59998;SDS011;45859;51.378;6.736;2023-08-30T06:18:05;24.70;;;21.37;;
59998;SDS011;45859;51.378;6.736;2023-08-30T06:20:30;23.80;;;21.33;;
59998;SDS011;45859;51.378;6.736;2023-08-30T06:22:57;22.47;;;20.07;;
59998;SDS011;45859;51.378;6.736;2023-08-30T06:25:23;20.87;;;18.77;;
59998;SDS011;45859;51.378;6.736;2023-08-30T06:27:56;19.42;;;17.38;;
59998;SDS011;45859;51.378;6.736;2023-08-30T06:30:23;19.20;;;17.27;;
59998;SDS011;45859;51.378;6.736;2023-08-30T06:32:55;18.80;;;16.90;;
59998;SDS011;45859;51.378;6.736;2023-08-30T06:35:22;18.38;;;16.45;;
59998;SDS011;45859;51.378;6.736;2023-08-30T06:37:48;18.90;;;17.00;;
59998;SDS011;45859;51.378;6.736;2023-08-30T06:40:14;18.80;;;16.92;;
59998;SDS011;45859;51.378;6.736;2023-08-30T06:42:39;18.65;;;16.75;;
59998;SDS011;45859;51.378;6.736;2023-08-30T06:45:05;17.98;;;16.17;;
59998;SDS011;45859;51.378;6.736;2023-08-30T06:47:31;18.70;;;16.80;;
59998;SDS011;45859;51.378;6.736;2023-08-30T06:49:57;18.45;;;16.35;;
59998;SDS011;45859;51.378;6.736;2023-08-30T06:52:23;18.25;;;16.45;;
59998;SDS011;45859;51.378;6.736;2023-08-30T06:54:49;18.58;;;15.82;;
59998;SDS011;45859;51.378;6.736;2023-08-30T06:57:15;18.10;;;16.35;;
59998;SDS011;45859;51.378;6.736;2023-08-30T06:59:41;17.70;;;15.93;;
59998;SDS011;45859;51.378;6.736;2023-08-30T07:02:07;18.13;;;16.30;;
59998;SDS011;45859;51.378;6.736;2023-08-30T07:04:33;17.63;;;15.82;;
59998;SDS011;45859;51.378;6.736;2023-08-30T07:06:59;17.45;;;15.65;;
59998;SDS011;45859;51.378;6.736;2023-08-30T07:09:24;17.40;;;15.52;;
59998;SDS011;45859;51.378;6.736;2023-08-30T07:11:57;16.90;;;15.13;;
59998;SDS011;45859;51.378;6.736;2023-08-30T07:14:23;18.80;;;14.45;;
59998;SDS011;45859;51.378;6.736;2023-08-30T07:16:49;16.83;;;15.23;;
59998;SDS011;45859;51.378;6.736;2023-08-30T07:19:15;16.83;;;14.93;;
59998;SDS011;45859;51.378;6.736;2023-08-30T07:21:41;15.95;;;14.35;;
59998;SDS011;45859;51.378;6.736;2023-08-30T07:24:07;14.20;;;12.38;;
59998;SDS011;45859;51.378;6.736;2023-08-30T07:26:33;13.60;;;12.25;;
59998;SDS011;45859;51.378;6.736;2023-08-30T07:28:59;14.02;;;12.25;;
59998;SDS011;45859;51.378;6.736;2023-08-30T07:31:25;13.52;;;12.13;;
59998;SDS011;45859;51.378;6.736;2023-08-30T07:33:51;12.98;;;11.68;;
59998;SDS011;45859;51.378;6.736;2023-08-30T07:36:16;11.25;;;10.05;;
59998;SDS011;45859;51.378;6.736;2023-08-30T07:38:42;10.50;;;9.18;;
59998;SDS011;45859;51.378;6.736;2023-08-30T07:41:09;10.60;;;9.48;;
59998;SDS011;45859;51.378;6.736;2023-08-30T07:43:35;8.82;;;8.02;;
59998;SDS011;45859;51.378;6.736;2023-08-30T07:46:00;8.95;;;7.35;;
59998;SDS011;45859;51.378;6.736;2023-08-30T07:48:26;10.88;;;7.70;;
59998;SDS011;45859;51.378;6.736;2023-08-30T07:50:51;9.25;;;7.93;;
59998;SDS011;45859;51.378;6.736;2023-08-30T07:53:17;8.15;;;6.40;;
59998;SDS011;45859;51.378;6.736;2023-08-30T07:55:43;7.82;;;6.47;;
59998;SDS011;45859;51.378;6.736;2023-08-30T07:58:14;7.78;;;7.03;;
59998;SDS011;45859;51.378;6.736;2023-08-30T08:00:39;8.10;;;5.70;;
59998;SDS011;45859;51.378;6.736;2023-08-30T08:03:05;6.93;;;5.15;;
59998;SDS011;45859;51.378;6.736;2023-08-30T08:05:31;8.40;;;5.68;;
59998;SDS011;45859;51.378;6.736;2023-08-30T08:07:58;7.03;;;5.40;;
59998;SDS011;45859;51.378;6.736;2023-08-30T08:10:25;5.93;;;5.32;;
59998;SDS011;45859;51.378;6.736;2023-08-30T08:12:51;7.93;;;5.20;;
59998;SDS011;45859;51.378;6.736;2023-08-30T08:15:16;6.85;;;5.50;;
59998;SDS011;45859;51.378;6.736;2023-08-30T08:17:42;6.55;;;5.05;;
59998;SDS011;45859;51.378;6.736;2023-08-30T08:20:08;6.78;;;5.50;;
59998;SDS011;45859;51.378;6.736;2023-08-30T08:22:33;7.97;;;5.47;;
59998;SDS011;45859;51.378;6.736;2023-08-30T08:24:59;8.32;;;5.32;;
59998;SDS011;45859;51.378;6.736;2023-08-30T08:27:25;8.18;;;5.13;;
59998;SDS011;45859;51.378;6.736;2023-08-30T08:29:50;8.18;;;5.00;;
59998;SDS011;45859;51.378;6.736;2023-08-30T08:32:16;6.68;;;5.18;;
59998;SDS011;45859;51.378;6.736;2023-08-30T08:34:42;7.38;;;5.32;;
59998;SDS011;45859;51.378;6.736;2023-08-30T08:37:07;7.57;;;5.45;;
59998;SDS011;45859;51.378;6.736;2023-08-30T08:39:33;8.48;;;5.30;;
59998;SDS011;45859;51.378;6.736;2023-08-30T08:41:59;7.15;;;5.13;;
59998;SDS011;45859;51.378;6.736;2023-08-30T08:44:26;8.57;;;5.32;;
59998;SDS011;45859;51.378;6.736;2023-08-30T08:46:56;9.77;;;5.30;;
59998;SDS011;45859;51.378;6.736;2023-08-30T08:49:22;11.55;;;6.22;;
59998;SDS011;45859;51.378;6.736;2023-08-30T08:51:47;9.85;;;5.63;;
59998;SDS011;45859;51.378;6.736;2023-08-30T08:54:14;10.02;;;5.40;;
59998;SDS011;45859;51.378;6.736;2023-08-30T08:56:40;6.95;;;4.95;;
59998;SDS011;45859;51.378;6.736;2023-08-30T08:59:06;24.02;;;8.25;;
59998;SDS011;45859;51.378;6.736;2023-08-30T09:01:33;10.60;;;5.32;;
59998;SDS011;45859;51.378;6.736;2023-08-30T09:04:03;6.85;;;4.90;;
59998;SDS011;45859;51.378;6.736;2023-08-30T09:06:33;9.52;;;5.53;;
59998;SDS011;45859;51.378;6.736;2023-08-30T09:09:00;11.30;;;5.60;;
59998;SDS011;45859;51.378;6.736;2023-08-30T09:11:28;7.55;;;5.20;;
59998;SDS011;45859;51.378;6.736;2023-08-30T09:13:54;9.07;;;5.47;;
59998;SDS011;45859;51.378;6.736;2023-08-30T09:16:19;13.38;;;5.90;;
59998;SDS011;45859;51.378;6.736;2023-08-30T09:18:56;9.38;;;5.90;;
59998;SDS011;45859;51.378;6.736;2023-08-30T09:21:25;11.55;;;6.68;;
59998;SDS011;45859;51.378;6.736;2023-08-30T09:23:57;14.48;;;6.32;;
59998;SDS011;45859;51.378;6.736;2023-08-30T09:26:28;10.82;;;5.95;;
59998;SDS011;45859;51.378;6.736;2023-08-30T09:28:56;10.23;;;7.15;;
59998;SDS011;45859;51.378;6.736;2023-08-30T09:31:32;10.90;;;6.28;;
59998;SDS011;45859;51.378;6.736;2023-08-30T09:33:58;12.23;;;8.07;;
59998;SDS011;45859;51.378;6.736;2023-08-30T09:36:24;12.00;;;8.20;;
59998;SDS011;45859;51.378;6.736;2023-08-30T09:38:49;11.15;;;8.20;;
59998;SDS011;45859;51.378;6.736;2023-08-30T09:41:15;11.63;;;8.77;;
59998;SDS011;45859;51.378;6.736;2023-08-30T09:43:42;10.63;;;9.43;;
59998;SDS011;45859;51.378;6.736;2023-08-30T09:46:08;11.50;;;10.20;;
59998;SDS011;45859;51.378;6.736;2023-08-30T09:48:34;15.43;;;11.17;;
59998;SDS011;45859;51.378;6.736;2023-08-30T09:50:59;15.97;;;11.57;;
59998;SDS011;45859;51.378;6.736;2023-08-30T09:53:28;15.23;;;12.63;;
59998;SDS011;45859;51.378;6.736;2023-08-30T09:55:58;10.85;;;9.75;;
59998;SDS011;45859;51.378;6.736;2023-08-30T09:58:24;14.17;;;10.83;;
59998;SDS011;45859;51.378;6.736;2023-08-30T10:00:52;12.70;;;10.40;;
59998;SDS011;45859;51.378;6.736;2023-08-30T10:03:19;14.03;;;12.33;;
59998;SDS011;45859;51.378;6.736;2023-08-30T10:05:45;13.60;;;11.50;;
59998;SDS011;45859;51.378;6.736;2023-08-30T10:08:12;13.93;;;11.70;;
59998;SDS011;45859;51.378;6.736;2023-08-30T10:10:39;16.20;;;12.90;;
59998;SDS011;45859;51.378;6.736;2023-08-30T10:13:05;16.70;;;12.57;;
59998;SDS011;45859;51.378;6.736;2023-08-30T10:15:33;17.20;;;14.37;;
59998;SDS011;45859;51.378;6.736;2023-08-30T10:18:00;17.27;;;15.33;;
59998;SDS011;45859;51.378;6.736;2023-08-30T10:20:28;15.77;;;14.17;;
59998;SDS011;45859;51.378;6.736;2023-08-30T10:22:53;15.20;;;13.03;;
59998;SDS011;45859;51.378;6.736;2023-08-30T10:25:22;15.90;;;13.40;;
59998;SDS011;45859;51.378;6.736;2023-08-30T10:27:52;12.73;;;11.30;;
59998;SDS011;45859;51.378;6.736;2023-08-30T10:30:20;14.27;;;10.83;;
59998;SDS011;45859;51.378;6.736;2023-08-30T10:32:46;11.03;;;9.90;;
59998;SDS011;45859;51.378;6.736;2023-08-30T10:35:12;9.33;;;8.30;;
59998;SDS011;45859;51.378;6.736;2023-08-30T10:37:40;11.90;;;9.63;;
59998;SDS011;45859;51.378;6.736;2023-08-30T10:40:06;14.47;;;11.57;;
59998;SDS011;45859;51.378;6.736;2023-08-30T10:42:32;16.57;;;13.20;;
59998;SDS011;45859;51.378;6.736;2023-08-30T10:44:59;12.70;;;11.20;;
59998;SDS011;45859;51.378;6.736;2023-08-30T10:47:28;15.07;;;11.13;;
59998;SDS011;45859;51.378;6.736;2023-08-30T10:50:02;13.80;;;11.70;;
59998;SDS011;45859;51.378;6.736;2023-08-30T10:52:38;12.63;;;11.03;;
59998;SDS011;45859;51.378;6.736;2023-08-30T10:55:08;15.40;;;13.80;;
59998;SDS011;45859;51.378;6.736;2023-08-30T10:57:41;14.43;;;12.93;;
59998;SDS011;45859;51.378;6.736;2023-08-30T11:02:51;19.93;;;17.93;;
59998;SDS011;45859;51.378;6.736;2023-08-30T11:05:18;19.93;;;18.00;;
59998;SDS011;45859;51.378;6.736;2023-08-30T11:07:46;17.93;;;15.40;;
59998;SDS011;45859;51.378;6.736;2023-08-30T11:10:14;16.20;;;13.73;;
59998;SDS011;45859;51.378;6.736;2023-08-30T11:12:40;13.67;;;12.27;;
59998;SDS011;45859;51.378;6.736;2023-08-30T11:15:06;15.53;;;13.70;;
59998;SDS011;45859;51.378;6.736;2023-08-30T11:17:33;16.07;;;13.90;;
59998;SDS011;45859;51.378;6.736;2023-08-30T11:20:09;15.43;;;12.90;;
59998;SDS011;45859;51.378;6.736;2023-08-30T11:22:39;17.83;;;13.27;;
59998;SDS011;45859;51.378;6.736;2023-08-30T11:25:09;16.50;;;14.73;;
59998;SDS011;45859;51.378;6.736;2023-08-30T11:27:36;16.80;;;13.50;;
59998;SDS011;45859;51.378;6.736;2023-08-30T11:30:03;17.73;;;15.93;;
59998;SDS011;45859;51.378;6.736;2023-08-30T11:32:37;15.03;;;12.50;;
59998;SDS011;45859;51.378;6.736;2023-08-30T11:35:04;12.77;;;11.47;;
59998;SDS011;45859;51.378;6.736;2023-08-30T11:37:31;14.50;;;12.47;;
59998;SDS011;45859;51.378;6.736;2023-08-30T11:39:58;13.13;;;11.37;;
59998;SDS011;45859;51.378;6.736;2023-08-30T11:42:24;15.27;;;13.67;;
59998;SDS011;45859;51.378;6.736;2023-08-30T11:44:51;14.17;;;11.43;;
59998;SDS011;45859;51.378;6.736;2023-08-30T11:47:17;13.87;;;12.40;;
59998;SDS011;45859;51.378;6.736;2023-08-30T11:49:54;12.73;;;11.43;;
59998;SDS011;45859;51.378;6.736;2023-08-30T11:52:22;10.30;;;9.20;;
59998;SDS011;45859;51.378;6.736;2023-08-30T11:54:49;11.17;;;9.67;;
59998;SDS011;45859;51.378;6.736;2023-08-30T11:57:17;9.30;;;8.40;;
59998;SDS011;45859;51.378;6.736;2023-08-30T11:59:43;10.30;;;9.30;;
59998;SDS011;45859;51.378;6.736;2023-08-30T12:02:09;12.27;;;9.90;;
59998;SDS011;45859;51.378;6.736;2023-08-30T12:04:40;10.77;;;9.53;;
59998;SDS011;45859;51.378;6.736;2023-08-30T12:07:06;8.10;;;4.47;;
59998;SDS011;45859;51.378;6.736;2023-08-30T12:09:33;10.17;;;8.87;;
59998;SDS011;45859;51.378;6.736;2023-08-30T12:12:06;10.03;;;9.03;;
59998;SDS011;45859;51.378;6.736;2023-08-30T12:14:35;11.33;;;8.20;;
59998;SDS011;45859;51.378;6.736;2023-08-30T12:17:01;9.00;;;8.03;;
59998;SDS011;45859;51.378;6.736;2023-08-30T12:19:28;9.97;;;8.50;;
59998;SDS011;45859;51.378;6.736;2023-08-30T12:21:54;8.57;;;7.77;;
59998;SDS011;45859;51.378;6.736;2023-08-30T12:24:20;10.70;;;9.60;;
59998;SDS011;45859;51.378;6.736;2023-08-30T12:26:47;11.50;;;10.40;;
59998;SDS011;45859;51.378;6.736;2023-08-30T12:29:13;10.13;;;9.13;;
59998;SDS011;45859;51.378;6.736;2023-08-30T12:31:39;9.83;;;8.83;;
59998;SDS011;45859;51.378;6.736;2023-08-30T12:34:05;9.60;;;8.70;;
59998;SDS011;45859;51.378;6.736;2023-08-30T12:36:31;11.67;;;9.77;;
59998;SDS011;45859;51.378;6.736;2023-08-30T12:38:56;11.30;;;10.20;;
59998;SDS011;45859;51.378;6.736;2023-08-30T12:41:22;11.43;;;10.33;;
59998;SDS011;45859;51.378;6.736;2023-08-30T12:43:48;11.60;;;10.50;;
59998;SDS011;45859;51.378;6.736;2023-08-30T12:46:15;14.17;;;11.20;;
59998;SDS011;45859;51.378;6.736;2023-08-30T12:48:41;13.13;;;11.77;;
59998;SDS011;45859;51.378;6.736;2023-08-30T12:51:07;12.47;;;11.27;;
59998;SDS011;45859;51.378;6.736;2023-08-30T12:53:32;12.60;;;11.37;;
59998;SDS011;45859;51.378;6.736;2023-08-30T12:55:58;11.73;;;10.53;;
59998;SDS011;45859;51.378;6.736;2023-08-30T12:58:24;13.73;;;12.20;;
59998;SDS011;45859;51.378;6.736;2023-08-30T13:00:50;15.43;;;13.97;;
59998;SDS011;45859;51.378;6.736;2023-08-30T13:03:15;16.47;;;14.77;;
59998;SDS011;45859;51.378;6.736;2023-08-30T13:05:41;13.03;;;11.27;;
59998;SDS011;45859;51.378;6.736;2023-08-30T13:08:07;12.43;;;11.23;;
59998;SDS011;45859;51.378;6.736;2023-08-30T13:10:32;12.20;;;10.53;;
59998;SDS011;45859;51.378;6.736;2023-08-30T13:12:58;12.07;;;10.87;;
59998;SDS011;45859;51.378;6.736;2023-08-30T13:15:24;11.53;;;10.43;;
59998;SDS011;45859;51.378;6.736;2023-08-30T13:17:50;10.47;;;9.47;;
59998;SDS011;45859;51.378;6.736;2023-08-30T13:20:17;12.50;;;10.10;;
59998;SDS011;45859;51.378;6.736;2023-08-30T13:22:43;11.00;;;9.87;;
59998;SDS011;45859;51.378;6.736;2023-08-30T13:25:09;10.27;;;9.27;;
59998;SDS011;45859;51.378;6.736;2023-08-30T13:27:35;10.80;;;9.80;;
59998;SDS011;45859;51.378;6.736;2023-08-30T13:30:01;11.17;;;10.07;;
59998;SDS011;45859;51.378;6.736;2023-08-30T13:32:27;11.50;;;10.30;;
59998;SDS011;45859;51.378;6.736;2023-08-30T13:34:53;12.80;;;11.37;;
59998;SDS011;45859;51.378;6.736;2023-08-30T13:37:18;12.83;;;10.57;;
59998;SDS011;45859;51.378;6.736;2023-08-30T13:39:44;9.37;;;8.47;;
59998;SDS011;45859;51.378;6.736;2023-08-30T13:42:11;8.13;;;7.33;;
59998;SDS011;45859;51.378;6.736;2023-08-30T13:44:37;8.57;;;7.77;;
59998;SDS011;45859;51.378;6.736;2023-08-30T13:47:03;7.60;;;6.80;;
59998;SDS011;45859;51.378;6.736;2023-08-30T13:49:30;6.20;;;5.60;;
59998;SDS011;45859;51.378;6.736;2023-08-30T13:51:56;7.17;;;5.17;;
59998;SDS011;45859;51.378;6.736;2023-08-30T13:54:22;5.10;;;4.70;;
59998;SDS011;45859;51.378;6.736;2023-08-30T13:56:48;5.40;;;4.90;;
59998;SDS011;45859;51.378;6.736;2023-08-30T13:59:13;5.87;;;5.27;;
59998;SDS011;45859;51.378;6.736;2023-08-30T14:01:40;6.07;;;5.47;;
59998;SDS011;45859;51.378;6.736;2023-08-30T14:04:06;7.27;;;5.37;;
59998;SDS011;45859;51.378;6.736;2023-08-30T14:06:32;7.00;;;6.30;;
59998;SDS011;45859;51.378;6.736;2023-08-30T14:08:58;8.87;;;7.00;;
59998;SDS011;45859;51.378;6.736;2023-08-30T14:11:23;7.63;;;6.93;;
59998;SDS011;45859;51.378;6.736;2023-08-30T14:13:49;8.73;;;7.83;;
59998;SDS011;45859;51.378;6.736;2023-08-30T14:16:15;10.20;;;8.70;;
59998;SDS011;45859;51.378;6.736;2023-08-30T14:18:41;8.53;;;7.37;;
59998;SDS011;45859;51.378;6.736;2023-08-30T14:21:08;8.33;;;7.53;;
59998;SDS011;45859;51.378;6.736;2023-08-30T14:23:34;9.50;;;8.50;;
59998;SDS011;45859;51.378;6.736;2023-08-30T14:26:02;9.83;;;8.30;;
59998;SDS011;45859;51.378;6.736;2023-08-30T14:28:38;8.70;;;7.87;;
59998;SDS011;45859;51.378;6.736;2023-08-30T14:31:08;9.18;;;8.25;;
59998;SDS011;45859;51.378;6.736;2023-08-30T14:33:35;9.55;;;8.48;;